sensor_id;sensor_type;location;lat;lon;timestamp;P1;durP1;ratioP1;P2;durP2;ratioP2
26718;SDS011;14326;50.794;6.060;2023-07-09T00:01:57;20.08;;;7.80;;
26718;SDS011;14326;50.794;6.060;2023-07-09T00:10:17;23.13;;;7.10;;
26718;SDS011;14326;50.794;6.060;2023-07-09T00:13:13;20.50;;;7.63;;
26718;SDS011;14326;50.794;6.060;2023-07-09T00:15:44;19.00;;;6.90;;
26718;SDS011;14326;50.794;6.060;2023-07-09T00:18:41;19.38;;;7.13;;
26718;SDS011;14326;50.794;6.060;2023-07-09T00:21:26;18.88;;;7.20;;
26718;SDS011;14326;50.794;6.060;2023-07-09T00:24:11;19.30;;;7.05;;
26718;SDS011;14326;50.794;6.060;2023-07-09T00:26:48;20.38;;;7.43;;
26718;SDS011;14326;50.794;6.060;2023-07-09T00:29:31;23.00;;;7.97;;
26718;SDS011;14326;50.794;6.060;2023-07-09T00:32:23;18.33;;;7.05;;
26718;SDS011;14326;50.794;6.060;2023-07-09T00:34:55;21.98;;;7.82;;
26718;SDS011;14326;50.794;6.060;2023-07-09T00:37:33;19.70;;;6.97;;
26718;SDS011;14326;50.794;6.060;2023-07-09T00:40:44;18.35;;;7.35;;
26718;SDS011;14326;50.794;6.060;2023-07-09T00:49:45;19.63;;;7.68;;
26718;SDS011;14326;50.794;6.060;2023-07-09T00:55:58;20.52;;;7.65;;
26718;SDS011;14326;50.794;6.060;2023-07-09T00:58:44;22.13;;;8.13;;
26718;SDS011;14326;50.794;6.060;2023-07-09T01:01:35;20.85;;;7.43;;
26718;SDS011;14326;50.794;6.060;2023-07-09T01:04:39;21.80;;;8.27;;
26718;SDS011;14326;50.794;6.060;2023-07-09T01:07:21;21.98;;;8.90;;
26718;SDS011;14326;50.794;6.060;2023-07-09T01:10:12;20.48;;;7.30;;
26718;SDS011;14326;50.794;6.060;2023-07-09T01:12:58;20.02;;;8.23;;
26718;SDS011;14326;50.794;6.060;2023-07-09T01:15:38;20.92;;;8.13;;
26718;SDS011;14326;50.794;6.060;2023-07-09T01:21:20;22.08;;;8.50;;
26718;SDS011;14326;50.794;6.060;2023-07-09T01:24:10;22.83;;;8.65;;
26718;SDS011;14326;50.794;6.060;2023-07-09T01:27:03;21.35;;;8.90;;
26718;SDS011;14326;50.794;6.060;2023-07-09T01:30:00;22.67;;;8.82;;
26718;SDS011;14326;50.794;6.060;2023-07-09T01:33:01;22.83;;;9.40;;
26718;SDS011;14326;50.794;6.060;2023-07-09T01:38:49;21.95;;;9.02;;
26718;SDS011;14326;50.794;6.060;2023-07-09T01:41:49;25.25;;;8.98;;
26718;SDS011;14326;50.794;6.060;2023-07-09T01:44:22;21.88;;;9.05;;
26718;SDS011;14326;50.794;6.060;2023-07-09T01:46:54;24.13;;;7.95;;
26718;SDS011;14326;50.794;6.060;2023-07-09T01:49:46;22.02;;;8.43;;
26718;SDS011;14326;50.794;6.060;2023-07-09T01:52:31;22.17;;;8.80;;
26718;SDS011;14326;50.794;6.060;2023-07-09T01:55:18;19.25;;;8.32;;
26718;SDS011;14326;50.794;6.060;2023-07-09T01:57:45;21.33;;;8.65;;
26718;SDS011;14326;50.794;6.060;2023-07-09T02:00:14;19.60;;;8.63;;
26718;SDS011;14326;50.794;6.060;2023-07-09T02:02:47;20.00;;;7.72;;
26718;SDS011;14326;50.794;6.060;2023-07-09T02:05:48;22.00;;;8.48;;
26718;SDS011;14326;50.794;6.060;2023-07-09T02:08:39;19.27;;;7.95;;
26718;SDS011;14326;50.794;6.060;2023-07-09T02:14:25;21.27;;;8.73;;
26718;SDS011;14326;50.794;6.060;2023-07-09T02:17:07;20.65;;;9.00;;
26718;SDS011;14326;50.794;6.060;2023-07-09T02:19:48;21.38;;;9.40;;
26718;SDS011;14326;50.794;6.060;2023-07-09T02:22:22;21.90;;;8.45;;
26718;SDS011;14326;50.794;6.060;2023-07-09T02:25:18;20.05;;;8.40;;
26718;SDS011;14326;50.794;6.060;2023-07-09T02:27:58;23.38;;;9.23;;
26718;SDS011;14326;50.794;6.060;2023-07-09T02:31:04;21.23;;;7.93;;
26718;SDS011;14326;50.794;6.060;2023-07-09T02:36:46;22.00;;;8.38;;
26718;SDS011;14326;50.794;6.060;2023-07-09T02:39:43;21.80;;;8.68;;
26718;SDS011;14326;50.794;6.060;2023-07-09T02:42:13;23.38;;;9.00;;
26718;SDS011;14326;50.794;6.060;2023-07-09T02:44:49;23.33;;;8.95;;
26718;SDS011;14326;50.794;6.060;2023-07-09T02:47:29;21.48;;;8.85;;
26718;SDS011;14326;50.794;6.060;2023-07-09T02:50:17;24.02;;;9.23;;
26718;SDS011;14326;50.794;6.060;2023-07-09T02:53:07;21.25;;;8.57;;
26718;SDS011;14326;50.794;6.060;2023-07-09T02:55:55;23.02;;;9.35;;
26718;SDS011;14326;50.794;6.060;2023-07-09T02:58:55;21.02;;;8.13;;
26718;SDS011;14326;50.794;6.060;2023-07-09T03:01:52;19.30;;;8.63;;
26718;SDS011;14326;50.794;6.060;2023-07-09T03:04:40;22.60;;;9.27;;
26718;SDS011;14326;50.794;6.060;2023-07-09T03:07:21;20.92;;;8.73;;
26718;SDS011;14326;50.794;6.060;2023-07-09T03:09:54;21.08;;;8.85;;
26718;SDS011;14326;50.794;6.060;2023-07-09T03:12:47;23.02;;;9.13;;
26718;SDS011;14326;50.794;6.060;2023-07-09T03:15:17;19.98;;;8.77;;
26718;SDS011;14326;50.794;6.060;2023-07-09T03:17:49;22.52;;;9.18;;
26718;SDS011;14326;50.794;6.060;2023-07-09T03:20:46;23.50;;;8.65;;
26718;SDS011;14326;50.794;6.060;2023-07-09T03:23:40;21.45;;;9.80;;
26718;SDS011;14326;50.794;6.060;2023-07-09T03:26:34;21.25;;;8.85;;
26718;SDS011;14326;50.794;6.060;2023-07-09T03:29:05;20.52;;;8.52;;
26718;SDS011;14326;50.794;6.060;2023-07-09T03:31:52;23.15;;;8.80;;
26718;SDS011;14326;50.794;6.060;2023-07-09T03:37:42;23.15;;;9.50;;
26718;SDS011;14326;50.794;6.060;2023-07-09T03:40:41;21.33;;;9.18;;
26718;SDS011;14326;50.794;6.060;2023-07-09T03:43:15;20.95;;;8.75;;
26718;SDS011;14326;50.794;6.060;2023-07-09T03:48:40;22.77;;;8.77;;
26718;SDS011;14326;50.794;6.060;2023-07-09T03:51:31;21.02;;;8.15;;
26718;SDS011;14326;50.794;6.060;2023-07-09T03:54:34;21.98;;;9.02;;
26718;SDS011;14326;50.794;6.060;2023-07-09T03:57:08;21.10;;;8.07;;
26718;SDS011;14326;50.794;6.060;2023-07-09T04:00:01;19.73;;;8.13;;
26718;SDS011;14326;50.794;6.060;2023-07-09T04:03:05;21.80;;;9.25;;
26718;SDS011;14326;50.794;6.060;2023-07-09T04:05:46;23.23;;;9.45;;
26718;SDS011;14326;50.794;6.060;2023-07-09T04:11:16;21.55;;;8.48;;
26718;SDS011;14326;50.794;6.060;2023-07-09T04:14:07;23.95;;;9.05;;
26718;SDS011;14326;50.794;6.060;2023-07-09T04:16:34;25.77;;;9.07;;
26718;SDS011;14326;50.794;6.060;2023-07-09T04:19:06;20.23;;;8.60;;
26718;SDS011;14326;50.794;6.060;2023-07-09T04:21:53;14.40;;;6.22;;
26718;SDS011;14326;50.794;6.060;2023-07-09T04:27:54;23.42;;;9.20;;
26718;SDS011;14326;50.794;6.060;2023-07-09T04:30:26;19.63;;;8.32;;
26718;SDS011;14326;50.794;6.060;2023-07-09T04:33:24;21.30;;;8.65;;
26718;SDS011;14326;50.794;6.060;2023-07-09T04:36:15;23.17;;;8.77;;
26718;SDS011;14326;50.794;6.060;2023-07-09T04:39:18;19.73;;;8.52;;
26718;SDS011;14326;50.794;6.060;2023-07-09T04:42:20;18.67;;;8.05;;
26718;SDS011;14326;50.794;6.060;2023-07-09T04:45:13;19.52;;;8.55;;
26718;SDS011;14326;50.794;6.060;2023-07-09T04:47:44;19.33;;;8.05;;
26718;SDS011;14326;50.794;6.060;2023-07-09T04:50:27;21.08;;;8.60;;
26718;SDS011;14326;50.794;6.060;2023-07-09T04:53:23;19.85;;;7.90;;
26718;SDS011;14326;50.794;6.060;2023-07-09T05:02:26;21.20;;;8.48;;
26718;SDS011;14326;50.794;6.060;2023-07-09T05:08:13;20.23;;;8.57;;
26718;SDS011;14326;50.794;6.060;2023-07-09T05:10:57;19.10;;;8.27;;
26718;SDS011;14326;50.794;6.060;2023-07-09T05:13:49;19.75;;;7.90;;
26718;SDS011;14326;50.794;6.060;2023-07-09T05:16:32;20.55;;;7.38;;
26718;SDS011;14326;50.794;6.060;2023-07-09T05:22:17;20.77;;;7.88;;
26718;SDS011;14326;50.794;6.060;2023-07-09T05:24:59;21.58;;;8.90;;
26718;SDS011;14326;50.794;6.060;2023-07-09T05:28:05;18.45;;;7.72;;
26718;SDS011;14326;50.794;6.060;2023-07-09T05:33:21;20.27;;;8.05;;
26718;SDS011;14326;50.794;6.060;2023-07-09T05:36:15;23.02;;;8.60;;
26718;SDS011;14326;50.794;6.060;2023-07-09T05:41:46;20.90;;;8.57;;
26718;SDS011;14326;50.794;6.060;2023-07-09T05:44:22;18.42;;;7.10;;
26718;SDS011;14326;50.794;6.060;2023-07-09T05:46:53;20.08;;;7.80;;
26718;SDS011;14326;50.794;6.060;2023-07-09T05:49:50;18.38;;;7.00;;
26718;SDS011;14326;50.794;6.060;2023-07-09T05:52:36;17.73;;;6.85;;
26718;SDS011;14326;50.794;6.060;2023-07-09T05:55:21;19.70;;;7.30;;
26718;SDS011;14326;50.794;6.060;2023-07-09T05:57:53;18.52;;;6.80;;
26718;SDS011;14326;50.794;6.060;2023-07-09T06:00:40;17.67;;;6.97;;
26718;SDS011;14326;50.794;6.060;2023-07-09T06:06:34;16.52;;;6.43;;
26718;SDS011;14326;50.794;6.060;2023-07-09T06:09:14;18.20;;;7.03;;
26718;SDS011;14326;50.794;6.060;2023-07-09T06:11:44;16.10;;;6.20;;
26718;SDS011;14326;50.794;6.060;2023-07-09T06:14:16;17.52;;;5.70;;
26718;SDS011;14326;50.794;6.060;2023-07-09T06:22:49;16.13;;;5.05;;
26718;SDS011;14326;50.794;6.060;2023-07-09T06:28:19;14.75;;;4.97;;
26718;SDS011;14326;50.794;6.060;2023-07-09T06:30:52;16.15;;;5.78;;
26718;SDS011;14326;50.794;6.060;2023-07-09T06:33:44;18.20;;;5.32;;
26718;SDS011;14326;50.794;6.060;2023-07-09T06:36:15;14.50;;;4.68;;
26718;SDS011;14326;50.794;6.060;2023-07-09T06:38:48;14.80;;;4.82;;
26718;SDS011;14326;50.794;6.060;2023-07-09T06:41:42;15.23;;;5.05;;
26718;SDS011;14326;50.794;6.060;2023-07-09T06:44:11;17.92;;;5.68;;
26718;SDS011;14326;50.794;6.060;2023-07-09T06:47:05;16.63;;;4.95;;
26718;SDS011;14326;50.794;6.060;2023-07-09T06:49:50;16.23;;;5.00;;
26718;SDS011;14326;50.794;6.060;2023-07-09T06:52:33;15.75;;;4.85;;
26718;SDS011;14326;50.794;6.060;2023-07-09T06:55:24;15.25;;;4.80;;
26718;SDS011;14326;50.794;6.060;2023-07-09T06:58:28;15.80;;;4.32;;
26718;SDS011;14326;50.794;6.060;2023-07-09T07:04:13;11.23;;;3.90;;
26718;SDS011;14326;50.794;6.060;2023-07-09T07:07:05;13.45;;;4.20;;
26718;SDS011;14326;50.794;6.060;2023-07-09T07:09:36;18.77;;;4.90;;
26718;SDS011;14326;50.794;6.060;2023-07-09T07:12:40;15.23;;;4.60;;
26718;SDS011;14326;50.794;6.060;2023-07-09T07:15:19;15.20;;;4.78;;
26718;SDS011;14326;50.794;6.060;2023-07-09T07:17:51;15.48;;;5.60;;
26718;SDS011;14326;50.794;6.060;2023-07-09T07:20:36;15.50;;;4.68;;
26718;SDS011;14326;50.794;6.060;2023-07-09T07:23:09;15.55;;;4.38;;
26718;SDS011;14326;50.794;6.060;2023-07-09T07:25:57;14.15;;;4.07;;
26718;SDS011;14326;50.794;6.060;2023-07-09T07:28:45;11.98;;;4.10;;
26718;SDS011;14326;50.794;6.060;2023-07-09T07:31:30;14.95;;;4.30;;
26718;SDS011;14326;50.794;6.060;2023-07-09T07:34:31;13.45;;;4.32;;
26718;SDS011;14326;50.794;6.060;2023-07-09T07:37:08;12.55;;;3.95;;
26718;SDS011;14326;50.794;6.060;2023-07-09T07:40:14;11.50;;;3.95;;
26718;SDS011;14326;50.794;6.060;2023-07-09T07:43:14;14.65;;;4.32;;
26718;SDS011;14326;50.794;6.060;2023-07-09T07:45:54;14.52;;;4.00;;
26718;SDS011;14326;50.794;6.060;2023-07-09T07:48:22;13.82;;;4.60;;
26718;SDS011;14326;50.794;6.060;2023-07-09T07:50:54;12.10;;;3.60;;
26718;SDS011;14326;50.794;6.060;2023-07-09T07:53:38;16.80;;;4.13;;
26718;SDS011;14326;50.794;6.060;2023-07-09T07:56:14;14.18;;;4.60;;
26718;SDS011;14326;50.794;6.060;2023-07-09T07:59:03;15.50;;;4.00;;
26718;SDS011;14326;50.794;6.060;2023-07-09T08:04:59;13.43;;;3.63;;
26718;SDS011;14326;50.794;6.060;2023-07-09T08:07:46;13.63;;;4.07;;
26718;SDS011;14326;50.794;6.060;2023-07-09T08:10:59;15.55;;;4.30;;
26718;SDS011;14326;50.794;6.060;2023-07-09T08:16:44;12.88;;;3.80;;
26718;SDS011;14326;50.794;6.060;2023-07-09T08:22:16;13.63;;;4.32;;
26718;SDS011;14326;50.794;6.060;2023-07-09T08:24:59;14.23;;;4.00;;
26718;SDS011;14326;50.794;6.060;2023-07-09T08:31:02;13.68;;;4.07;;
26718;SDS011;14326;50.794;6.060;2023-07-09T08:33:41;18.08;;;4.65;;
26718;SDS011;14326;50.794;6.060;2023-07-09T08:36:36;12.18;;;3.70;;
26718;SDS011;14326;50.794;6.060;2023-07-09T08:39:23;14.07;;;4.07;;
26718;SDS011;14326;50.794;6.060;2023-07-09T08:42:14;13.77;;;3.97;;
26718;SDS011;14326;50.794;6.060;2023-07-09T08:45:15;13.82;;;4.70;;
26718;SDS011;14326;50.794;6.060;2023-07-09T08:48:12;13.88;;;3.90;;
26718;SDS011;14326;50.794;6.060;2023-07-09T08:51:12;13.52;;;3.90;;
26718;SDS011;14326;50.794;6.060;2023-07-09T08:56:48;13.93;;;4.10;;
26718;SDS011;14326;50.794;6.060;2023-07-09T08:59:58;12.43;;;4.00;;
26718;SDS011;14326;50.794;6.060;2023-07-09T09:02:33;12.45;;;4.20;;
26718;SDS011;14326;50.794;6.060;2023-07-09T09:05:51;11.95;;;4.32;;
26718;SDS011;14326;50.794;6.060;2023-07-09T09:08:44;13.30;;;3.92;;
26718;SDS011;14326;50.794;6.060;2023-07-09T09:11:42;11.90;;;4.25;;
26718;SDS011;14326;50.794;6.060;2023-07-09T09:14:36;13.93;;;3.90;;
26718;SDS011;14326;50.794;6.060;2023-07-09T09:17:17;13.57;;;4.28;;
26718;SDS011;14326;50.794;6.060;2023-07-09T09:20:04;14.00;;;4.13;;
26718;SDS011;14326;50.794;6.060;2023-07-09T09:22:48;12.80;;;4.03;;
26718;SDS011;14326;50.794;6.060;2023-07-09T09:26:04;11.05;;;3.72;;
26718;SDS011;14326;50.794;6.060;2023-07-09T09:29:28;13.60;;;4.18;;
26718;SDS011;14326;50.794;6.060;2023-07-09T09:32:16;16.27;;;3.90;;
26718;SDS011;14326;50.794;6.060;2023-07-09T09:41:15;11.73;;;3.40;;
26718;SDS011;14326;50.794;6.060;2023-07-09T09:44:14;15.07;;;3.95;;
26718;SDS011;14326;50.794;6.060;2023-07-09T09:46:51;15.02;;;4.25;;
26718;SDS011;14326;50.794;6.060;2023-07-09T09:49:43;15.90;;;4.40;;
26718;SDS011;14326;50.794;6.060;2023-07-09T09:52:26;12.70;;;3.60;;
26718;SDS011;14326;50.794;6.060;2023-07-09T09:55:30;10.35;;;3.15;;
26718;SDS011;14326;50.794;6.060;2023-07-09T09:58:24;12.43;;;3.30;;
26718;SDS011;14326;50.794;6.060;2023-07-09T10:01:00;12.32;;;3.33;;
26718;SDS011;14326;50.794;6.060;2023-07-09T10:04:27;12.60;;;3.80;;
26718;SDS011;14326;50.794;6.060;2023-07-09T10:07:07;12.52;;;3.40;;
26718;SDS011;14326;50.794;6.060;2023-07-09T10:09:38;9.75;;;3.13;;
26718;SDS011;14326;50.794;6.060;2023-07-09T10:12:22;10.60;;;3.08;;
26718;SDS011;14326;50.794;6.060;2023-07-09T10:15:19;8.73;;;3.25;;
26718;SDS011;14326;50.794;6.060;2023-07-09T10:18:19;13.52;;;3.60;;
26718;SDS011;14326;50.794;6.060;2023-07-09T10:27:24;10.80;;;3.85;;
26718;SDS011;14326;50.794;6.060;2023-07-09T10:33:22;12.82;;;3.60;;
26718;SDS011;14326;50.794;6.060;2023-07-09T10:36:37;13.32;;;3.63;;
26718;SDS011;14326;50.794;6.060;2023-07-09T10:39:34;11.20;;;3.95;;
26718;SDS011;14326;50.794;6.060;2023-07-09T10:42:17;9.10;;;3.10;;
26718;SDS011;14326;50.794;6.060;2023-07-09T10:44:55;13.32;;;4.13;;
26718;SDS011;14326;50.794;6.060;2023-07-09T10:47:28;11.35;;;3.50;;
26718;SDS011;14326;50.794;6.060;2023-07-09T10:49:59;11.80;;;3.92;;
26718;SDS011;14326;50.794;6.060;2023-07-09T10:52:37;14.25;;;3.60;;
26718;SDS011;14326;50.794;6.060;2023-07-09T10:58:58;12.40;;;3.50;;
26718;SDS011;14326;50.794;6.060;2023-07-09T11:02:01;11.75;;;3.35;;
26718;SDS011;14326;50.794;6.060;2023-07-09T11:08:04;13.00;;;3.80;;
26718;SDS011;14326;50.794;6.060;2023-07-09T11:13:34;10.98;;;3.50;;
26718;SDS011;14326;50.794;6.060;2023-07-09T11:16:13;12.90;;;3.60;;
26718;SDS011;14326;50.794;6.060;2023-07-09T11:19:24;14.15;;;3.88;;
26718;SDS011;14326;50.794;6.060;2023-07-09T11:25:27;12.77;;;3.63;;
26718;SDS011;14326;50.794;6.060;2023-07-09T11:31:08;10.30;;;3.65;;
26718;SDS011;14326;50.794;6.060;2023-07-09T11:36:49;13.32;;;4.07;;
26718;SDS011;14326;50.794;6.060;2023-07-09T11:39:29;11.85;;;3.83;;
26718;SDS011;14326;50.794;6.060;2023-07-09T11:42:23;13.15;;;4.03;;
26718;SDS011;14326;50.794;6.060;2023-07-09T11:48:00;16.20;;;4.03;;
26718;SDS011;14326;50.794;6.060;2023-07-09T11:50:49;12.90;;;3.78;;
26718;SDS011;14326;50.794;6.060;2023-07-09T11:53:56;14.17;;;4.00;;
26718;SDS011;14326;50.794;6.060;2023-07-09T11:59:42;17.58;;;3.85;;
26718;SDS011;14326;50.794;6.060;2023-07-09T12:05:16;14.50;;;4.13;;
26718;SDS011;14326;50.794;6.060;2023-07-09T12:08:00;13.40;;;4.28;;
26718;SDS011;14326;50.794;6.060;2023-07-09T12:10:55;11.40;;;3.85;;
26718;SDS011;14326;50.794;6.060;2023-07-09T12:13:36;10.45;;;3.58;;
26718;SDS011;14326;50.794;6.060;2023-07-09T12:16:17;15.27;;;4.30;;
26718;SDS011;14326;50.794;6.060;2023-07-09T12:19:04;15.45;;;4.15;;
26718;SDS011;14326;50.794;6.060;2023-07-09T12:22:05;10.43;;;3.85;;
26718;SDS011;14326;50.794;6.060;2023-07-09T12:24:54;15.10;;;3.70;;
26718;SDS011;14326;50.794;6.060;2023-07-09T12:27:36;14.88;;;4.15;;
26718;SDS011;14326;50.794;6.060;2023-07-09T12:30:08;15.32;;;4.65;;
26718;SDS011;14326;50.794;6.060;2023-07-09T12:32:58;13.75;;;4.28;;
26718;SDS011;14326;50.794;6.060;2023-07-09T12:35:55;17.42;;;5.03;;
26718;SDS011;14326;50.794;6.060;2023-07-09T12:38:39;13.25;;;4.22;;
26718;SDS011;14326;50.794;6.060;2023-07-09T12:44:15;13.82;;;3.65;;
26718;SDS011;14326;50.794;6.060;2023-07-09T12:46:50;15.00;;;4.40;;
26718;SDS011;14326;50.794;6.060;2023-07-09T12:49:23;16.27;;;4.28;;
26718;SDS011;14326;50.794;6.060;2023-07-09T12:51:53;13.00;;;4.07;;
26718;SDS011;14326;50.794;6.060;2023-07-09T12:54:31;15.57;;;3.90;;
26718;SDS011;14326;50.794;6.060;2023-07-09T12:57:19;18.20;;;4.50;;
26718;SDS011;14326;50.794;6.060;2023-07-09T13:00:05;14.93;;;4.25;;
26718;SDS011;14326;50.794;6.060;2023-07-09T13:08:39;14.65;;;4.03;;
26718;SDS011;14326;50.794;6.060;2023-07-09T13:17:41;9.45;;;3.28;;
26718;SDS011;14326;50.794;6.060;2023-07-09T13:20:11;13.68;;;3.63;;
26718;SDS011;14326;50.794;6.060;2023-07-09T13:23:07;20.55;;;4.80;;
26718;SDS011;14326;50.794;6.060;2023-07-09T13:25:52;15.07;;;3.90;;
26718;SDS011;14326;50.794;6.060;2023-07-09T13:31:15;10.95;;;3.72;;
26718;SDS011;14326;50.794;6.060;2023-07-09T13:34:08;16.52;;;4.68;;
26718;SDS011;14326;50.794;6.060;2023-07-09T13:36:44;15.43;;;4.55;;
26718;SDS011;14326;50.794;6.060;2023-07-09T13:45:39;15.70;;;4.35;;
26718;SDS011;14326;50.794;6.060;2023-07-09T13:51:38;19.70;;;6.47;;
26718;SDS011;14326;50.794;6.060;2023-07-09T13:54:31;30.10;;;12.05;;
26718;SDS011;14326;50.794;6.060;2023-07-09T13:57:07;30.90;;;12.63;;
26718;SDS011;14326;50.794;6.060;2023-07-09T13:59:57;27.55;;;11.95;;
26718;SDS011;14326;50.794;6.060;2023-07-09T14:02:40;28.77;;;10.35;;
26718;SDS011;14326;50.794;6.060;2023-07-09T14:05:56;26.77;;;13.07;;
26718;SDS011;14326;50.794;6.060;2023-07-09T14:11:01;33.42;;;18.23;;
26718;SDS011;14326;50.794;6.060;2023-07-09T14:13:49;44.17;;;24.63;;
26718;SDS011;14326;50.794;6.060;2023-07-09T14:16:30;44.95;;;26.30;;
26718;SDS011;14326;50.794;6.060;2023-07-09T14:19:11;41.40;;;25.08;;
26718;SDS011;14326;50.794;6.060;2023-07-09T14:22:01;39.92;;;26.27;;
26718;SDS011;14326;50.794;6.060;2023-07-09T14:25:10;40.05;;;26.88;;
26718;SDS011;14326;50.794;6.060;2023-07-09T14:27:41;46.42;;;30.23;;
26718;SDS011;14326;50.794;6.060;2023-07-09T14:30:19;40.83;;;29.80;;
26718;SDS011;14326;50.794;6.060;2023-07-09T14:33:24;42.00;;;23.73;;
26718;SDS011;14326;50.794;6.060;2023-07-09T14:39:02;36.88;;;22.27;;
26718;SDS011;14326;50.794;6.060;2023-07-09T14:41:39;35.15;;;21.42;;
26718;SDS011;14326;50.794;6.060;2023-07-09T14:50:01;30.88;;;18.27;;
26718;SDS011;14326;50.794;6.060;2023-07-09T14:52:28;32.17;;;19.00;;
26718;SDS011;14326;50.794;6.060;2023-07-09T14:54:57;30.75;;;16.80;;
26718;SDS011;14326;50.794;6.060;2023-07-09T15:00:49;28.85;;;15.63;;
26718;SDS011;14326;50.794;6.060;2023-07-09T15:06:27;27.50;;;15.50;;
26718;SDS011;14326;50.794;6.060;2023-07-09T15:09:01;28.00;;;15.90;;
26718;SDS011;14326;50.794;6.060;2023-07-09T15:14:14;28.70;;;15.45;;
26718;SDS011;14326;50.794;6.060;2023-07-09T15:16:43;32.20;;;15.65;;
26718;SDS011;14326;50.794;6.060;2023-07-09T15:19:37;26.92;;;15.98;;
26718;SDS011;14326;50.794;6.060;2023-07-09T15:22:25;27.70;;;15.07;;
26718;SDS011;14326;50.794;6.060;2023-07-09T15:25:11;29.27;;;16.00;;
26718;SDS011;14326;50.794;6.060;2023-07-09T15:27:58;29.42;;;16.73;;
26718;SDS011;14326;50.794;6.060;2023-07-09T15:30:39;30.80;;;17.98;;
26718;SDS011;14326;50.794;6.060;2023-07-09T15:33:15;29.15;;;17.17;;
26718;SDS011;14326;50.794;6.060;2023-07-09T15:35:55;31.45;;;17.45;;
26718;SDS011;14326;50.794;6.060;2023-07-09T15:38:58;34.10;;;19.73;;
26718;SDS011;14326;50.794;6.060;2023-07-09T15:41:54;29.65;;;17.95;;
26718;SDS011;14326;50.794;6.060;2023-07-09T15:44:36;32.47;;;17.90;;
26718;SDS011;14326;50.794;6.060;2023-07-09T15:47:16;33.45;;;19.10;;
26718;SDS011;14326;50.794;6.060;2023-07-09T15:53:15;31.52;;;17.08;;
26718;SDS011;14326;50.794;6.060;2023-07-09T16:02:36;27.98;;;15.40;;
26718;SDS011;14326;50.794;6.060;2023-07-09T16:05:22;31.50;;;16.40;;
26718;SDS011;14326;50.794;6.060;2023-07-09T16:09:35;25.17;;;14.60;;
26718;SDS011;14326;50.794;6.060;2023-07-09T16:11:23;24.77;;;13.60;;
26718;SDS011;14326;50.794;6.060;2023-07-09T16:14:16;28.92;;;13.80;;
26718;SDS011;14326;50.794;6.060;2023-07-09T16:16:51;23.63;;;11.10;;
26718;SDS011;14326;50.794;6.060;2023-07-09T16:22:30;26.00;;;12.18;;
26718;SDS011;14326;50.794;6.060;2023-07-09T16:25:04;22.80;;;10.38;;
26718;SDS011;14326;50.794;6.060;2023-07-09T16:27:52;24.70;;;12.80;;
26718;SDS011;14326;50.794;6.060;2023-07-09T16:30:30;24.98;;;11.85;;
26718;SDS011;14326;50.794;6.060;2023-07-09T16:32:57;26.95;;;11.00;;
26718;SDS011;14326;50.794;6.060;2023-07-09T16:35:26;26.60;;;12.75;;
26718;SDS011;14326;50.794;6.060;2023-07-09T16:38:15;24.80;;;11.80;;
26718;SDS011;14326;50.794;6.060;2023-07-09T16:41:30;38.75;;;20.55;;
26718;SDS011;14326;50.794;6.060;2023-07-09T16:44:07;23.00;;;10.77;;
26718;SDS011;14326;50.794;6.060;2023-07-09T16:46:39;20.13;;;9.75;;
26718;SDS011;14326;50.794;6.060;2023-07-09T16:49:35;24.02;;;11.98;;
26718;SDS011;14326;50.794;6.060;2023-07-09T16:52:24;21.33;;;9.13;;
26718;SDS011;14326;50.794;6.060;2023-07-09T16:55:26;20.52;;;10.00;;
26718;SDS011;14326;50.794;6.060;2023-07-09T16:58:25;28.52;;;10.52;;
26718;SDS011;14326;50.794;6.060;2023-07-09T17:06:59;21.70;;;9.35;;
26718;SDS011;14326;50.794;6.060;2023-07-09T17:09:34;22.25;;;11.27;;
26718;SDS011;14326;50.794;6.060;2023-07-09T17:12:07;22.67;;;11.75;;
26718;SDS011;14326;50.794;6.060;2023-07-09T17:14:48;22.38;;;11.25;;
26718;SDS011;14326;50.794;6.060;2023-07-09T17:20:14;28.27;;;13.77;;
26718;SDS011;14326;50.794;6.060;2023-07-09T17:22:48;24.58;;;12.27;;
26718;SDS011;14326;50.794;6.060;2023-07-09T17:25:49;23.33;;;12.52;;
26718;SDS011;14326;50.794;6.060;2023-07-09T17:28:41;23.55;;;12.10;;
26718;SDS011;14326;50.794;6.060;2023-07-09T17:31:26;24.42;;;12.43;;
26718;SDS011;14326;50.794;6.060;2023-07-09T17:37:10;23.90;;;11.60;;
26718;SDS011;14326;50.794;6.060;2023-07-09T17:39:58;25.05;;;13.18;;
26718;SDS011;14326;50.794;6.060;2023-07-09T17:43:00;24.55;;;12.38;;
26718;SDS011;14326;50.794;6.060;2023-07-09T17:45:37;26.63;;;12.45;;
26718;SDS011;14326;50.794;6.060;2023-07-09T17:48:15;27.13;;;13.55;;
26718;SDS011;14326;50.794;6.060;2023-07-09T17:50:45;28.83;;;13.45;;
26718;SDS011;14326;50.794;6.060;2023-07-09T17:56:28;23.35;;;12.52;;
26718;SDS011;14326;50.794;6.060;2023-07-09T17:59:21;26.38;;;14.15;;
26718;SDS011;14326;50.794;6.060;2023-07-09T18:02:41;27.92;;;13.38;;
26718;SDS011;14326;50.794;6.060;2023-07-09T18:05:26;23.23;;;13.27;;
26718;SDS011;14326;50.794;6.060;2023-07-09T18:08:32;27.23;;;13.20;;
26718;SDS011;14326;50.794;6.060;2023-07-09T18:11:29;33.53;;;15.68;;
26718;SDS011;14326;50.794;6.060;2023-07-09T18:14:01;31.83;;;17.20;;
26718;SDS011;14326;50.794;6.060;2023-07-09T18:16:29;30.15;;;15.63;;
26718;SDS011;14326;50.794;6.060;2023-07-09T18:18:57;29.00;;;17.15;;
26718;SDS011;14326;50.794;6.060;2023-07-09T18:21:28;29.38;;;17.55;;
26718;SDS011;14326;50.794;6.060;2023-07-09T18:23:56;25.73;;;14.80;;
26718;SDS011;14326;50.794;6.060;2023-07-09T18:29:26;27.52;;;16.33;;
26718;SDS011;14326;50.794;6.060;2023-07-09T18:35:00;29.55;;;16.88;;
26718;SDS011;14326;50.794;6.060;2023-07-09T18:37:41;28.15;;;16.83;;
26718;SDS011;14326;50.794;6.060;2023-07-09T18:40:10;30.58;;;18.00;;
26718;SDS011;14326;50.794;6.060;2023-07-09T18:42:38;33.03;;;18.20;;
26718;SDS011;14326;50.794;6.060;2023-07-09T18:45:05;32.13;;;17.35;;
26718;SDS011;14326;50.794;6.060;2023-07-09T18:47:32;34.25;;;19.42;;
26718;SDS011;14326;50.794;6.060;2023-07-09T18:49:59;28.42;;;16.52;;
26718;SDS011;14326;50.794;6.060;2023-07-09T18:52:25;29.30;;;16.35;;
26718;SDS011;14326;50.794;6.060;2023-07-09T18:54:57;30.95;;;17.15;;
26718;SDS011;14326;50.794;6.060;2023-07-09T18:57:31;31.02;;;17.60;;
26718;SDS011;14326;50.794;6.060;2023-07-09T19:00:15;29.13;;;16.83;;
26718;SDS011;14326;50.794;6.060;2023-07-09T19:03:18;30.15;;;16.33;;
26718;SDS011;14326;50.794;6.060;2023-07-09T19:06:07;29.88;;;18.02;;
26718;SDS011;14326;50.794;6.060;2023-07-09T19:08:57;32.63;;;17.15;;
26718;SDS011;14326;50.794;6.060;2023-07-09T19:12:08;30.48;;;18.38;;
26718;SDS011;14326;50.794;6.060;2023-07-09T19:14:41;27.60;;;17.27;;
26718;SDS011;14326;50.794;6.060;2023-07-09T19:17:09;31.45;;;18.80;;
26718;SDS011;14326;50.794;6.060;2023-07-09T19:19:49;32.38;;;18.15;;
26718;SDS011;14326;50.794;6.060;2023-07-09T19:22:23;35.47;;;19.42;;
26718;SDS011;14326;50.794;6.060;2023-07-09T19:25:10;30.27;;;18.23;;
26718;SDS011;14326;50.794;6.060;2023-07-09T19:27:50;30.50;;;18.52;;
26718;SDS011;14326;50.794;6.060;2023-07-09T19:30:59;29.40;;;17.63;;
26718;SDS011;14326;50.794;6.060;2023-07-09T19:33:58;33.65;;;18.25;;
26718;SDS011;14326;50.794;6.060;2023-07-09T19:39:32;32.45;;;18.30;;
26718;SDS011;14326;50.794;6.060;2023-07-09T19:42:30;30.77;;;18.17;;
26718;SDS011;14326;50.794;6.060;2023-07-09T19:45:18;30.25;;;18.65;;
26718;SDS011;14326;50.794;6.060;2023-07-09T19:47:55;31.80;;;19.25;;
26718;SDS011;14326;50.794;6.060;2023-07-09T19:50:32;30.50;;;19.38;;
26718;SDS011;14326;50.794;6.060;2023-07-09T19:53:13;33.28;;;18.88;;